Time;durP1;ratioP1;P1;durP2;ratioP2;P2;SDS_P1;SDS_P2;PMS_P1;PMS_P2;Temp;Humidity;BMP_temperature;BMP_pressure;BME280_temperature;BME280_humidity;BME280_pressure;Samples;Min_cycle;Max_cycle;Signal;HPM_P1;HPM_P2
2022/01/15 00:02:09;;;;;;;8.77;4.93;;;-5.90;99.90;;;;;;2216611;64;20085;-35
2022/01/15 00:04:36;;;;;;;9.53;5.50;;;-5.90;99.90;;;;;;2217478;64;20073;-35
2022/01/15 00:07:03;;;;;;;9.70;4.23;;;-5.90;99.90;;;;;;2217334;64;20100;-35
2022/01/15 00:09:29;;;;;;;9.70;4.30;;;-5.90;99.90;;;;;;2217204;64;20558;-35
2022/01/15 00:11:56;;;;;;;6.30;3.53;;;-5.90;99.90;;;;;;2217287;64;20092;-36
2022/01/15 00:14:36;;;;;;;10.80;4.53;;;-5.90;99.90;;;;;;2217406;64;20108;-35
2022/01/15 00:17:43;;;;;;;7.10;4.37;;;-5.90;99.90;;;;;;2214337;64;20670;-34
2022/01/15 00:20:05;;;;;;;8.63;3.40;;;-5.90;99.90;;;;;;2220380;64;20107;-34
2022/01/15 00:22:32;;;;;;;4.63;2.30;;;-5.90;99.90;;;;;;2217436;64;20073;-36
2022/01/15 00:24:59;;;;;;;8.53;3.93;;;-5.90;99.90;;;;;;2216454;64;20104;-34
2022/01/15 00:27:26;;;;;;;8.30;4.27;;;-5.90;99.90;;;;;;2213430;64;20182;-35
2022/01/15 00:29:53;;;;;;;8.43;5.50;;;-5.90;99.90;;;;;;2213480;64;20097;-34
2022/01/15 00:32:19;;;;;;;8.83;5.60;;;-5.80;99.90;;;;;;2213616;64;20081;-34
2022/01/15 00:34:47;;;;;;;7.77;4.57;;;-5.80;99.90;;;;;;2204541;64;20093;-36
2022/01/15 00:37:13;;;;;;;6.40;3.23;;;-5.70;99.90;;;;;;2201398;64;20161;-38
2022/01/15 00:39:40;;;;;;;9.57;3.53;;;-5.70;99.90;;;;;;2201513;64;20112;-40
2022/01/15 00:42:09;;;;;;;4.50;2.57;;;-5.70;99.90;;;;;;2201380;64;20164;-38
2022/01/15 00:44:40;;;;;;;11.07;4.97;;;-5.70;99.90;;;;;;2204810;64;20109;-37
2022/01/15 00:47:07;;;;;;;6.20;2.90;;;-5.60;99.90;;;;;;2204751;64;20188;-43
2022/01/15 00:49:34;;;;;;;7.90;3.60;;;-5.60;99.90;;;;;;2201356;64;20102;-35
2022/01/15 00:52:01;;;;;;;7.10;4.30;;;-5.60;99.90;;;;;;2204732;64;20163;-35
2022/01/15 00:54:28;;;;;;;6.70;4.13;;;-5.60;99.90;;;;;;2201361;64;20101;-37
2022/01/15 00:56:54;;;;;;;11.80;4.63;;;-5.50;99.90;;;;;;2201380;64;20100;-36
2022/01/15 00:59:21;;;;;;;7.00;3.93;;;-5.50;99.90;;;;;;2204834;64;20074;-35
2022/01/15 01:01:48;;;;;;;7.67;4.57;;;-5.50;99.90;;;;;;2204695;64;20112;-34
2022/01/15 01:04:15;;;;;;;5.97;2.30;;;-5.40;99.90;;;;;;2201580;64;20648;-36
2022/01/15 01:06:42;;;;;;;8.00;3.67;;;-5.40;99.90;;;;;;2214244;64;20150;-35
2022/01/15 01:09:08;;;;;;;6.03;3.40;;;-5.40;99.90;;;;;;2213314;64;20096;-35
2022/01/15 01:11:54;;;;;;;11.27;3.67;;;-5.40;99.90;;;;;;2213468;64;20089;-35
2022/01/15 01:20:09;;;;;;;10.52;7.18;;;-5.30;99.90;;;;;;2213421;64;20198;-38
2022/01/15 01:25:22;;;;;;;;;;;-5.20;99.90;;;;;;2214965;64;20119;-38
2022/01/15 01:27:53;;;;;;;10.57;5.27;;;-5.20;99.90;;;;;;2217032;64;20381;-41
2022/01/15 01:30:28;;;;;;;9.13;5.37;;;-5.20;99.90;;;;;;2217225;64;20103;-38
2022/01/15 01:35:44;;;;;;;8.07;4.07;;;-5.20;99.90;;;;;;2216927;64;20092;-40
2022/01/15 01:38:34;;;;;;;6.97;2.53;;;-5.20;99.90;;;;;;2216895;64;20193;-41
2022/01/15 01:41:01;;;;;;;10.40;4.93;;;-5.10;99.90;;;;;;2220253;64;20553;-39
2022/01/15 01:46:19;;;;;;;3.53;1.33;;;-5.10;99.90;;;;;;2216978;64;20159;-41
2022/01/15 01:48:47;;;;;;;3.43;1.60;;;-5.20;99.90;;;;;;2216962;64;20084;-40
2022/01/15 01:51:22;;;;;;;3.00;0.90;;;-5.20;99.90;;;;;;2216944;64;20647;-40
2022/01/15 01:53:49;;;;;;;2.37;1.20;;;-5.30;99.90;;;;;;2217014;64;20088;-40
2022/01/15 01:56:16;;;;;;;4.70;1.30;;;-5.20;99.90;;;;;;2217092;64;20093;-42
2022/01/15 01:58:43;;;;;;;3.67;1.30;;;-5.20;99.90;;;;;;2217090;64;20115;-44
2022/01/15 02:01:10;;;;;;;2.20;1.33;;;-5.20;99.90;;;;;;2216845;64;20107;-42
2022/01/15 02:03:37;;;;;;;3.23;1.00;;;-5.20;99.90;;;;;;2213813;64;20241;-41
2022/01/15 02:06:04;;;;;;;4.20;2.27;;;-5.20;99.90;;;;;;2217104;64;20116;-41
2022/01/15 02:08:35;;;;;;;6.77;3.57;;;-5.20;99.90;;;;;;2216987;64;20099;-40
2022/01/15 02:11:03;;;;;;;7.20;3.07;;;-5.10;99.90;;;;;;2216912;64;20091;-41
2022/01/15 02:13:31;;;;;;;8.80;5.03;;;-5.10;99.90;;;;;;2216994;64;20107;-35
2022/01/15 02:15:58;;;;;;;8.10;4.40;;;-5.10;99.90;;;;;;2216962;64;20107;-44
2022/01/15 02:18:26;;;;;;;9.53;4.50;;;-5.00;99.90;;;;;;2217063;64;20088;-37
2022/01/15 02:23:45;;;;;;;6.07;3.67;;;-4.90;99.90;;;;;;2209169;64;20101;-36
2022/01/15 02:26:25;;;;;;;6.37;3.20;;;-4.90;99.90;;;;;;2214121;64;20545;-35
2022/01/15 02:28:52;;;;;;;4.63;2.73;;;-4.90;99.90;;;;;;2213048;64;20085;-34
2022/01/15 02:31:19;;;;;;;8.43;4.10;;;-4.90;99.90;;;;;;2213082;64;20105;-34
2022/01/15 02:33:47;;;;;;;7.20;4.43;;;-4.90;99.90;;;;;;2213026;64;20081;-36
2022/01/15 02:36:22;;;;;;;7.10;3.13;;;-4.90;99.90;;;;;;2212974;64;20093;-37
2022/01/15 02:38:49;;;;;;;4.75;2.92;;;-4.90;99.90;;;;;;2213077;64;20089;-34
2022/01/15 02:41:23;;;;;;;4.33;3.20;;;-4.80;99.90;;;;;;2213118;64;20108;-34
2022/01/15 02:43:53;;;;;;;6.75;3.95;;;-4.80;99.90;;;;;;2212992;64;20081;-35
2022/01/15 02:48:59;;;;;;;4.97;2.67;;;-4.80;99.90;;;;;;2213171;64;20081;-35
2022/01/15 02:51:28;;;;;;;6.47;3.23;;;-4.80;99.90;;;;;;2213131;64;20546;-34
2022/01/15 02:53:55;;;;;;;3.47;1.33;;;-4.80;99.90;;;;;;2209860;64;20085;-35
2022/01/15 02:56:29;;;;;;;2.83;1.40;;;-4.80;99.90;;;;;;2213045;64;20085;-35
2022/01/15 02:58:56;;;;;;;1.47;0.67;;;-4.80;99.90;;;;;;2209951;64;20089;-36
2022/01/15 03:01:23;;;;;;;4.53;2.47;;;-4.90;99.90;;;;;;2212691;64;20112;-39
2022/01/15 03:03:51;;;;;;;1.93;1.30;;;-4.90;99.90;;;;;;2213059;64;20184;-36
2022/01/15 03:06:20;;;;;;;5.13;1.73;;;-4.90;99.90;;;;;;2212934;64;20095;-35
2022/01/15 03:08:48;;;;;;;4.33;1.10;;;-4.90;99.90;;;;;;2212989;64;20155;-38
2022/01/15 03:11:15;;;;;;;1.70;1.00;;;-4.90;99.90;;;;;;2209686;64;20426;-35
2022/01/15 03:13:42;;;;;;;6.67;2.03;;;-4.90;99.90;;;;;;2213020;64;20085;-36
2022/01/15 03:16:16;;;;;;;3.50;0.93;;;-4.90;99.90;;;;;;2213005;64;20148;-38
2022/01/15 03:18:46;;;;;;;3.17;1.10;;;-5.00;99.90;;;;;;2209675;64;20120;-36
2022/01/15 03:21:15;;;;;;;4.70;2.17;;;-5.00;99.90;;;;;;2213005;64;20081;-38
2022/01/15 03:23:43;;;;;;;6.10;2.37;;;-5.00;99.90;;;;;;2212575;64;20551;-36
2022/01/15 03:26:13;;;;;;;1.80;0.97;;;-5.00;99.90;;;;;;2215663;64;20093;-39
2022/01/15 03:28:40;;;;;;;5.50;2.63;;;-5.00;99.90;;;;;;2216682;64;20099;-36
2022/01/15 03:31:07;;;;;;;3.30;1.43;;;-5.00;99.90;;;;;;2216700;64;20105;-35
2022/01/15 03:33:34;;;;;;;1.80;0.97;;;-5.00;99.90;;;;;;2216873;64;20615;-35
2022/01/15 03:36:01;;;;;;;3.47;1.37;;;-5.00;99.90;;;;;;2216813;64;20092;-37
2022/01/15 03:38:28;;;;;;;8.13;2.33;;;-5.10;99.90;;;;;;2217131;64;20099;-36
2022/01/15 03:40:55;;;;;;;5.03;1.90;;;-5.10;99.90;;;;;;2217384;64;20085;-38
2022/01/15 03:43:23;;;;;;;5.20;2.13;;;-5.10;99.90;;;;;;2217460;64;20612;-38
2022/01/15 03:45:51;;;;;;;5.27;2.30;;;-5.10;99.90;;;;;;2217432;64;20111;-35
2022/01/15 03:48:20;;;;;;;5.03;2.13;;;-5.10;99.90;;;;;;2217521;64;20548;-35
2022/01/15 03:50:46;;;;;;;6.37;1.90;;;-5.10;99.90;;;;;;2217120;64;20170;-42
2022/01/15 03:53:13;;;;;;;5.70;1.70;;;-5.10;99.90;;;;;;2217362;64;20103;-37
2022/01/15 03:55:40;;;;;;;1.03;0.60;;;-5.10;99.90;;;;;;2217477;64;20088;-35
2022/01/15 03:58:07;;;;;;;4.40;2.27;;;-5.10;99.90;;;;;;2217046;64;20101;-39
2022/01/15 04:00:34;;;;;;;7.30;3.60;;;-5.10;99.90;;;;;;2217252;64;20166;-38
2022/01/15 04:03:03;;;;;;;4.57;2.20;;;-5.10;99.90;;;;;;2217471;64;20081;-37
2022/01/15 04:05:30;;;;;;;4.87;2.10;;;-5.10;99.90;;;;;;2217503;64;20092;-37
2022/01/15 04:07:57;;;;;;;5.00;2.70;;;-5.10;99.90;;;;;;2220504;64;20107;-38
2022/01/15 04:10:24;;;;;;;6.90;2.27;;;-5.10;99.90;;;;;;2214226;64;20589;-40
2022/01/15 04:12:50;;;;;;;5.80;1.80;;;-5.10;99.90;;;;;;2217301;64;20437;-37
2022/01/15 04:15:18;;;;;;;11.43;5.17;;;-5.00;99.90;;;;;;2217085;64;20108;-35
2022/01/15 04:17:47;;;;;;;21.67;8.00;;;-5.10;99.90;;;;;;2217222;64;20088;-38
2022/01/15 04:20:18;;;;;;;19.00;6.60;;;-5.20;99.90;;;;;;2217151;64;20088;-42
2022/01/15 04:22:44;;;;;;;13.17;5.30;;;-5.40;99.90;;;;;;2208864;64;20117;-42
2022/01/15 04:25:11;;;;;;;14.80;5.80;;;-5.40;99.90;;;;;;2207925;64;20093;-43
2022/01/15 04:27:39;;;;;;;9.40;4.07;;;-5.50;99.90;;;;;;2205057;64;20496;-45
2022/01/15 04:30:07;;;;;;;9.53;5.67;;;-5.60;99.90;;;;;;2205352;64;20095;-44
2022/01/15 04:32:34;;;;;;;8.13;4.60;;;-5.60;99.90;;;;;;2205317;64;20105;-44
2022/01/15 04:35:00;;;;;;;6.37;3.63;;;-5.70;99.90;;;;;;2205230;64;20093;-45
2022/01/15 04:37:40;;;;;;;8.43;3.63;;;-5.80;99.90;;;;;;2205210;64;20094;-45
2022/01/15 04:40:08;;;;;;;9.43;5.37;;;-5.90;99.90;;;;;;2205243;64;20093;-48
2022/01/15 04:42:35;;;;;;;7.33;4.33;;;-6.00;99.90;;;;;;2205444;64;20592;-46
2022/01/15 04:45:03;;;;;;;8.20;4.33;;;-6.00;99.90;;;;;;2205305;64;20090;-40
2022/01/15 04:47:30;;;;;;;6.40;3.27;;;-6.00;99.90;;;;;;2205286;64;20093;-40
2022/01/15 04:49:58;;;;;;;8.33;4.33;;;-6.10;99.90;;;;;;2205160;64;20082;-39
2022/01/15 04:52:25;;;;;;;9.23;4.23;;;-6.10;99.90;;;;;;2202245;64;20153;-39
2022/01/15 04:54:52;;;;;;;9.80;3.77;;;-6.20;99.90;;;;;;2204748;64;20171;-39
2022/01/15 04:57:19;;;;;;;8.43;4.57;;;-6.20;99.90;;;;;;2205264;64;20085;-39
2022/01/15 04:59:46;;;;;;;8.23;3.47;;;-6.20;99.90;;;;;;2206794;64;20105;-41
2022/01/15 05:02:12;;;;;;;8.80;4.30;;;-6.30;99.90;;;;;;2213432;64;20178;-40
2022/01/15 05:04:39;;;;;;;7.53;3.77;;;-6.30;99.90;;;;;;2213156;64;20088;-40
2022/01/15 05:07:06;;;;;;;7.43;3.60;;;-6.30;99.90;;;;;;2213110;64;20104;-40
2022/01/15 05:09:33;;;;;;;10.83;4.33;;;-6.40;99.90;;;;;;2209953;64;20469;-41
2022/01/15 05:12:05;;;;;;;8.70;3.60;;;-6.40;99.90;;;;;;2213325;64;20096;-41
2022/01/15 05:14:32;;;;;;;10.63;4.13;;;-6.40;99.90;;;;;;2213209;64;20085;-39
2022/01/15 05:16:59;;;;;;;8.27;4.37;;;-6.50;99.90;;;;;;2213189;64;20112;-39
2022/01/15 05:19:25;;;;;;;9.37;3.87;;;-6.50;99.90;;;;;;2213131;64;20082;-40
2022/01/15 05:21:55;;;;;;;7.50;3.27;;;-6.50;99.90;;;;;;2210153;64;20131;-40
2022/01/15 05:24:22;;;;;;;8.60;4.33;;;-6.50;99.90;;;;;;2212987;64;20107;-40
2022/01/15 05:26:49;;;;;;;7.83;3.47;;;-6.50;99.90;;;;;;2208722;64;20108;-40
2022/01/15 05:29:17;;;;;;;8.53;3.63;;;-6.50;99.90;;;;;;2204165;64;20646;-40
2022/01/15 05:31:43;;;;;;;8.27;3.47;;;-6.50;99.90;;;;;;2204523;64;20094;-41
2022/01/15 05:34:11;;;;;;;10.27;3.77;;;-6.60;99.90;;;;;;2201188;64;20108;-40
2022/01/15 05:36:39;;;;;;;11.17;4.03;;;-6.60;99.90;;;;;;2201377;64;20109;-42
2022/01/15 05:39:06;;;;;;;7.37;3.40;;;-6.70;99.90;;;;;;2201158;64;20093;-41
2022/01/15 05:41:34;;;;;;;6.37;3.50;;;-6.80;99.90;;;;;;2198125;64;20187;-41
2022/01/15 05:44:02;;;;;;;6.67;2.93;;;-6.90;99.90;;;;;;2201196;64;20090;-40
2022/01/15 05:46:30;;;;;;;6.57;3.23;;;-6.80;99.90;;;;;;2204373;64;20527;-41
2022/01/15 05:48:57;;;;;;;8.47;3.20;;;-6.90;99.90;;;;;;2201272;64;20573;-41
2022/01/15 05:51:29;;;;;;;9.13;3.70;;;-7.00;99.90;;;;;;2204301;64;20082;-42
2022/01/15 05:54:00;;;;;;;9.33;4.07;;;-7.10;99.90;;;;;;2198052;64;20106;-42
2022/01/15 05:56:27;;;;;;;8.20;5.17;;;-7.10;99.90;;;;;;2201082;64;20082;-41
2022/01/15 05:58:54;;;;;;;7.30;4.03;;;-7.20;99.90;;;;;;2204513;64;20094;-42
2022/01/15 06:01:21;;;;;;;8.07;4.00;;;-7.20;99.90;;;;;;2215342;64;20111;-42
2022/01/15 06:03:50;;;;;;;8.20;3.10;;;-7.20;99.90;;;;;;2216989;64;20085;-42
2022/01/15 06:06:19;;;;;;;9.37;4.40;;;-7.20;99.90;;;;;;2216855;64;20161;-42
2022/01/15 06:08:47;;;;;;;9.13;3.80;;;-7.30;99.90;;;;;;2216884;64;20080;-43
2022/01/15 06:11:17;;;;;;;7.40;3.60;;;-7.40;99.90;;;;;;2217000;64;20119;-43
2022/01/15 06:13:45;;;;;;;8.60;4.07;;;-7.40;99.90;;;;;;2216845;64;20097;-41
2022/01/15 06:16:12;;;;;;;7.87;4.97;;;-7.60;99.90;;;;;;2216961;64;20089;-45
2022/01/15 06:18:39;;;;;;;6.20;3.50;;;-7.70;99.90;;;;;;2216695;64;20115;-43
2022/01/15 06:21:06;;;;;;;9.50;4.33;;;-7.70;99.90;;;;;;2211660;64;20131;-43
2022/01/15 06:23:33;;;;;;;8.57;5.03;;;-7.90;99.90;;;;;;2208890;64;20278;-43
2022/01/15 06:26:00;;;;;;;9.60;4.43;;;-7.90;99.90;;;;;;2206248;64;20085;-43
2022/01/15 06:28:29;;;;;;;9.60;4.73;;;-8.00;99.90;;;;;;2205094;64;20175;-43
2022/01/15 06:30:56;;;;;;;6.93;4.13;;;-8.10;99.90;;;;;;2204811;64;20128;-48
2022/01/15 06:33:23;;;;;;;9.47;4.93;;;-8.00;99.90;;;;;;2201870;64;20120;-44
2022/01/15 06:35:56;;;;;;;9.57;4.60;;;-8.10;99.90;;;;;;2204733;64;20105;-44
2022/01/15 06:38:23;;;;;;;9.87;5.10;;;-8.10;99.90;;;;;;2201521;64;20180;-43
2022/01/15 06:40:50;;;;;;;10.50;4.67;;;-8.20;99.90;;;;;;2204781;64;20089;-45
2022/01/15 06:43:21;;;;;;;9.73;4.57;;;-8.20;99.90;;;;;;2201726;64;20085;-43
2022/01/15 06:45:48;;;;;;;9.97;4.83;;;-8.10;99.90;;;;;;2204891;64;20118;-45
2022/01/15 06:48:17;;;;;;;7.73;3.90;;;-8.20;99.90;;;;;;2201605;64;20101;-43
2022/01/15 06:50:45;;;;;;;10.60;5.00;;;-8.20;99.90;;;;;;2207825;64;20263;-47
2022/01/15 06:53:12;;;;;;;9.03;5.03;;;-8.20;99.90;;;;;;2201467;64;20089;-46
2022/01/15 06:55:39;;;;;;;12.07;3.87;;;-8.30;99.90;;;;;;2201811;64;20074;-44
2022/01/15 06:58:06;;;;;;;10.13;4.23;;;-8.20;99.90;;;;;;2206618;64;20104;-44
2022/01/15 07:00:33;;;;;;;10.07;4.20;;;-8.30;99.90;;;;;;2212765;64;20552;-43
2022/01/15 07:03:01;;;;;;;8.27;4.03;;;-8.30;99.90;;;;;;2212769;64;20097;-45
2022/01/15 07:05:28;;;;;;;8.70;4.90;;;-8.40;99.90;;;;;;2208738;64;20119;-46
2022/01/15 07:07:56;;;;;;;11.70;5.00;;;-8.40;99.90;;;;;;2212853;64;20108;-45
2022/01/15 07:10:23;;;;;;;7.77;4.10;;;-8.30;99.90;;;;;;2212777;64;20085;-45
2022/01/15 07:12:50;;;;;;;8.83;4.03;;;-8.30;99.90;;;;;;2212678;64;20085;-46
2022/01/15 07:15:17;;;;;;;9.50;4.63;;;-8.20;99.90;;;;;;2215951;64;20077;-46
2022/01/15 07:17:44;;;;;;;11.20;5.40;;;-8.10;99.90;;;;;;2209632;64;20093;-46
2022/01/15 07:20:12;;;;;;;13.13;5.43;;;-8.10;99.90;;;;;;2212999;64;20081;-46
2022/01/15 07:22:39;;;;;;;10.17;5.80;;;-8.20;99.90;;;;;;2212850;64;20111;-47
2022/01/15 07:25:07;;;;;;;10.17;4.27;;;-8.10;99.90;;;;;;2210305;64;20131;-46
2022/01/15 07:27:34;;;;;;;9.73;5.77;;;-8.10;99.90;;;;;;2216544;64;20527;-46
2022/01/15 07:30:02;;;;;;;7.33;4.27;;;-8.10;99.90;;;;;;2216663;64;20084;-46
2022/01/15 07:32:29;;;;;;;14.37;6.03;;;-8.10;99.90;;;;;;2216680;64;20088;-45
2022/01/15 07:34:55;;;;;;;9.23;4.50;;;-8.10;99.90;;;;;;2216501;64;20116;-46
2022/01/15 07:37:22;;;;;;;12.60;5.50;;;-8.00;99.90;;;;;;2216518;64;20177;-48
2022/01/15 07:39:49;;;;;;;12.30;4.93;;;-8.00;99.90;;;;;;2216673;64;20099;-46
2022/01/15 07:42:16;;;;;;;9.43;4.03;;;-8.00;99.90;;;;;;2213420;64;20093;-54
2022/01/15 07:44:43;;;;;;;6.53;4.13;;;-8.00;99.90;;;;;;2216647;64;20472;-45
2022/01/15 07:47:11;;;;;;;11.30;5.13;;;-8.00;99.90;;;;;;2216646;64;20097;-46
2022/01/15 07:49:38;;;;;;;11.07;5.60;;;-8.00;99.90;;;;;;2216909;64;20107;-45
2022/01/15 07:52:05;;;;;;;18.23;6.83;;;-8.10;99.90;;;;;;2217349;64;20103;-45
2022/01/15 07:54:32;;;;;;;10.27;6.27;;;-8.30;99.90;;;;;;2217327;64;20470;-44
2022/01/15 07:56:59;;;;;;;21.23;8.90;;;-8.30;99.90;;;;;;2217141;64;20104;-44
2022/01/15 07:59:28;;;;;;;17.80;6.37;;;-8.40;99.90;;;;;;2217313;64;20165;-44
2022/01/15 08:01:55;;;;;;;14.97;7.40;;;-8.40;99.90;;;;;;2217165;64;20104;-41
2022/01/15 08:04:25;;;;;;;17.00;6.83;;;-8.50;99.90;;;;;;2217088;64;20096;-43
2022/01/15 08:06:51;;;;;;;19.23;6.90;;;-8.60;99.90;;;;;;2217071;64;20084;-42
2022/01/15 08:09:18;;;;;;;15.80;6.60;;;-8.60;99.90;;;;;;2217038;64;20084;-47
2022/01/15 08:11:48;;;;;;;15.17;6.43;;;-8.60;99.90;;;;;;2217412;64;20104;-39
2022/01/15 08:14:18;;;;;;;19.80;7.53;;;-8.70;99.90;;;;;;2217273;64;20100;-41
2022/01/15 08:16:45;;;;;;;13.87;6.27;;;-8.70;99.90;;;;;;2217207;64;20104;-38
2022/01/15 08:19:12;;;;;;;15.13;6.40;;;-8.80;99.90;;;;;;2217320;64;20110;-40
2022/01/15 08:21:39;;;;;;;10.67;4.40;;;-8.80;99.90;;;;;;2217023;64;20103;-40
2022/01/15 08:24:06;;;;;;;12.67;5.83;;;-8.70;99.90;;;;;;2214046;64;20097;-39
2022/01/15 08:26:32;;;;;;;13.00;4.37;;;-8.80;99.90;;;;;;2214580;64;20119;-41
2022/01/15 08:28:59;;;;;;;13.33;6.97;;;-8.70;99.90;;;;;;2210638;64;20564;-40
2022/01/15 08:31:26;;;;;;;11.27;4.50;;;-8.80;99.90;;;;;;2210544;64;20081;-39
2022/01/15 08:33:53;;;;;;;15.17;6.33;;;-8.90;99.90;;;;;;2213784;64;20178;-38
2022/01/15 08:36:21;;;;;;;16.33;8.40;;;-8.90;99.90;;;;;;2213997;64;20173;-36
2022/01/15 08:38:48;;;;;;;17.17;7.00;;;-9.10;99.90;;;;;;2213764;64;20097;-36
2022/01/15 08:41:15;;;;;;;18.00;8.27;;;-9.20;99.90;;;;;;2210847;64;20162;-38
2022/01/15 08:43:42;;;;;;;16.70;6.47;;;-9.30;99.90;;;;;;2211335;64;20111;-37
2022/01/15 08:46:09;;;;;;;15.27;6.37;;;-9.30;99.90;;;;;;2198648;64;20187;-36
2022/01/15 08:48:36;;;;;;;12.77;7.33;;;-9.30;99.90;;;;;;2201666;64;20176;-37
2022/01/15 08:51:02;;;;;;;15.93;7.77;;;-9.50;99.90;;;;;;2204842;64;20116;-37
2022/01/15 08:53:29;;;;;;;13.93;7.20;;;-9.50;99.90;;;;;;2204948;64;20573;-37
2022/01/15 08:55:56;;;;;;;13.67;7.70;;;-9.50;99.90;;;;;;2205318;64;20077;-35
2022/01/15 08:58:25;;;;;;;16.37;7.33;;;-9.70;99.90;;;;;;2198398;64;20104;-36
2022/01/15 09:00:54;;;;;;;14.50;7.57;;;-9.60;99.90;;;;;;2204984;64;20554;-44
2022/01/15 09:03:25;;;;;;;17.33;8.10;;;-9.70;99.90;;;;;;2204982;64;20494;-38
2022/01/15 09:05:52;;;;;;;14.83;7.10;;;-9.90;99.90;;;;;;2205187;64;20089;-36
2022/01/15 09:08:24;;;;;;;11.83;7.63;;;-9.90;99.90;;;;;;2204923;64;20609;-37
2022/01/15 09:10:52;;;;;;;16.33;8.93;;;-9.90;99.90;;;;;;2205083;64;20092;-46
2022/01/15 09:13:19;;;;;;;16.07;8.87;;;-9.90;99.90;;;;;;2208491;64;20089;-37
2022/01/15 09:15:47;;;;;;;15.20;8.70;;;-9.90;99.90;;;;;;2212264;64;20556;-38
2022/01/15 09:18:15;;;;;;;16.03;8.73;;;-9.90;99.90;;;;;;2212861;64;20112;-35
2022/01/15 09:20:42;;;;;;;19.37;9.43;;;-9.90;99.90;;;;;;2213231;64;20112;-42
2022/01/15 09:23:09;;;;;;;20.27;10.03;;;-9.90;99.90;;;;;;2212997;64;20152;-36
2022/01/15 09:25:36;;;;;;;16.00;8.77;;;-10.00;99.90;;;;;;2210001;64;20178;-37
2022/01/15 09:30:49;;;;;;;21.37;8.83;;;-10.10;99.90;;;;;;2213274;64;20105;-36
2022/01/15 09:33:16;;;;;;;19.70;9.97;;;-10.00;99.90;;;;;;2213135;64;20093;-36
2022/01/15 09:35:43;;;;;;;17.63;7.80;;;-10.00;99.90;;;;;;2212785;64;20545;-36
2022/01/15 09:38:10;;;;;;;20.57;9.97;;;-10.00;99.90;;;;;;2212950;64;20569;-35
2022/01/15 09:40:40;;;;;;;16.80;7.63;;;-10.10;99.90;;;;;;2213146;64;20103;-36
2022/01/15 09:43:08;;;;;;;18.53;10.10;;;-10.10;99.90;;;;;;2210044;64;20119;-36
2022/01/15 09:45:35;;;;;;;16.53;7.57;;;-10.20;99.90;;;;;;2213149;64;20098;-35
2022/01/15 09:48:04;;;;;;;15.03;6.70;;;-10.00;99.90;;;;;;2212937;64;20108;-38
2022/01/15 09:50:33;;;;;;;18.50;9.17;;;-10.00;99.90;;;;;;2214649;64;20475;-36
2022/01/15 09:53:00;;;;;;;19.47;8.97;;;-10.10;99.90;;;;;;2216973;64;20281;-35
2022/01/15 09:55:27;;;;;;;16.93;9.13;;;-10.10;99.90;;;;;;2216985;64;20166;-38
2022/01/15 09:57:54;;;;;;;17.60;8.40;;;-10.10;99.90;;;;;;2216931;64;20568;-44
2022/01/15 10:00:22;;;;;;;16.87;8.07;;;-10.10;99.90;;;;;;2216841;64;20669;-39
2022/01/15 10:02:50;;;;;;;18.87;7.50;;;-10.20;99.90;;;;;;2208598;64;20080;-33
2022/01/15 10:05:17;;;;;;;21.60;10.50;;;-10.20;99.90;;;;;;2209018;64;20527;-34
2022/01/15 10:08:13;;;;;;;21.20;9.80;;;-10.20;99.90;;;;;;2208651;64;20192;-36
2022/01/15 10:10:41;;;;;;;20.65;9.93;;;-10.20;99.90;;;;;;2208783;64;20093;-35
2022/01/15 10:13:15;;;;;;;19.63;7.47;;;-10.10;99.90;;;;;;2205566;64;20744;-34
2022/01/15 10:15:43;;;;;;;16.80;6.78;;;-10.10;99.90;;;;;;2208766;64;20085;-35
2022/01/15 10:18:20;;;;;;;13.00;6.70;;;-10.10;99.90;;;;;;2208671;64;20211;-35
2022/01/15 10:20:46;;;;;;;13.53;6.20;;;-10.20;99.90;;;;;;2208886;64;20135;-36
2022/01/15 10:23:17;;;;;;;20.13;8.40;;;-10.20;99.90;;;;;;2211947;64;20168;-35
2022/01/15 10:25:45;;;;;;;22.50;10.03;;;-10.20;99.90;;;;;;2206370;64;20176;-34
2022/01/15 10:28:11;;;;;;;16.30;8.67;;;-10.30;99.90;;;;;;2204765;64;20624;-39
2022/01/15 10:30:41;;;;;;;18.67;9.60;;;-10.30;99.90;;;;;;2201749;64;20651;-34
2022/01/15 10:33:09;;;;;;;17.07;8.90;;;-10.20;99.90;;;;;;2205981;64;20097;-35
2022/01/15 10:35:40;;;;;;;19.33;9.37;;;-10.20;99.90;;;;;;2216276;64;20190;-34
2022/01/15 10:38:17;;;;;;;18.30;9.43;;;-10.10;99.90;;;;;;2212839;64;20164;-36
2022/01/15 10:40:50;;;;;;;18.27;8.20;;;-10.10;99.90;;;;;;2212965;64;20602;-35
2022/01/15 10:43:21;;;;;;;17.70;8.83;;;-10.10;99.90;;;;;;2212801;64;20163;-35
2022/01/15 10:45:58;;;;;;;13.00;5.47;;;-10.10;99.90;;;;;;2209660;64;20134;-33
2022/01/15 10:48:31;;;;;;;23.37;10.87;;;-10.10;99.90;;;;;;2212818;64;20093;-38
2022/01/15 10:51:08;;;;;;;18.20;9.87;;;-10.20;99.90;;;;;;2212772;64;20093;-37
2022/01/15 10:53:46;;;;;;;23.90;10.33;;;-10.20;99.90;;;;;;2212771;64;20139;-35
2022/01/15 10:56:15;;;;;;;12.27;6.07;;;-10.20;99.90;;;;;;2212833;64;20571;-34
2022/01/15 10:58:45;;;;;;;22.93;12.33;;;-10.10;99.90;;;;;;2209677;64;20093;-33
2022/01/15 11:01:13;;;;;;;20.87;11.00;;;-10.30;99.90;;;;;;2204441;64;20104;-34
2022/01/15 11:03:44;;;;;;;21.37;13.50;;;-10.40;99.90;;;;;;2207779;64;20112;-36
2022/01/15 11:06:11;;;;;;;18.97;10.90;;;-10.50;99.90;;;;;;2204694;64;20081;-35
2022/01/15 11:08:39;;;;;;;22.23;12.27;;;-10.40;99.90;;;;;;2204735;64;20572;-35
2022/01/15 11:11:07;;;;;;;22.97;12.37;;;-10.60;99.90;;;;;;2204724;64;20299;-35
2022/01/15 11:13:46;;;;;;;24.30;12.90;;;-10.60;99.90;;;;;;2204655;64;20905;-35
2022/01/15 11:16:16;;;;;;;19.97;11.30;;;-10.60;99.90;;;;;;2207815;64;20230;-35
2022/01/15 11:18:51;;;;;;;20.73;11.87;;;-10.70;99.90;;;;;;2204446;64;20196;-34
2022/01/15 11:21:19;;;;;;;18.02;11.95;;;-10.70;99.90;;;;;;2202449;65;20697;-38
2022/01/15 11:23:47;;;;;;;26.23;15.27;;;-10.70;99.90;;;;;;2196377;65;20118;-35
2022/01/15 11:26:21;;;;;;;21.33;6.60;;;-10.80;99.90;;;;;;2199113;65;20173;-36
2022/01/15 11:28:48;;;;;;;26.80;16.80;;;-10.80;99.90;;;;;;2200128;65;20381;-37
2022/01/15 11:31:26;;;;;;;22.67;11.17;;;-10.90;99.90;;;;;;2200702;64;20238;-35
2022/01/15 11:33:55;;;;;;;26.47;14.83;;;-10.90;99.90;;;;;;2204889;64;20109;-35
2022/01/15 11:36:32;;;;;;;22.57;9.90;;;-10.80;99.90;;;;;;2204922;64;20073;-35
2022/01/15 11:39:03;;;;;;;28.00;15.10;;;-10.90;99.90;;;;;;2204563;64;20082;-43
2022/01/15 11:41:30;;;;;;;24.33;11.23;;;-11.00;99.90;;;;;;2207613;64;20089;-40
2022/01/15 11:44:00;;;;;;;28.13;16.97;;;-11.00;99.90;;;;;;2207615;64;20086;-34
2022/01/15 11:46:32;;;;;;;24.20;15.00;;;-11.00;99.90;;;;;;2204406;64;20191;-36
2022/01/15 11:49:23;;;;;;;27.37;14.90;;;-11.10;99.90;;;;;;2204562;64;20466;-35
2022/01/15 11:51:54;;;;;;;29.50;15.60;;;-11.10;99.90;;;;;;2204499;64;20085;-35
2022/01/15 11:54:21;;;;;;;26.90;14.00;;;-11.10;99.90;;;;;;2204829;64;20109;-35
2022/01/15 11:56:49;;;;;;;23.27;14.83;;;-11.20;99.90;;;;;;2201459;64;20074;-36
2022/01/15 11:59:31;;;;;;;28.30;16.27;;;-11.20;99.90;;;;;;2213681;64;20097;-37
2022/01/15 12:02:02;;;;;;;29.43;17.83;;;-11.30;99.90;;;;;;2217553;64;20140;-36
2022/01/15 12:04:36;;;;;;;30.00;15.83;;;-11.30;99.90;;;;;;2217445;64;20091;-35
2022/01/15 12:09:47;;;;;;;28.67;15.27;;;-11.30;99.90;;;;;;2217214;64;20092;-39
2022/01/15 12:14:53;;;;;;;26.00;13.40;;;-11.40;99.90;;;;;;2217101;64;20108;-35
2022/01/15 12:17:28;;;;;;;25.83;14.90;;;-11.40;99.90;;;;;;2217196;64;20174;-35
2022/01/15 12:19:55;;;;;;;26.80;13.73;;;-11.40;99.90;;;;;;2217326;64;20173;-34
2022/01/15 12:22:45;;;;;;;30.57;16.63;;;-11.40;99.90;;;;;;2214011;64;20572;-35
2022/01/15 12:25:18;;;;;;;27.20;13.30;;;-11.50;99.90;;;;;;2216066;64;20168;-36
2022/01/15 12:27:57;;;;;;;25.30;13.37;;;-11.50;99.90;;;;;;2216463;64;20104;-35
2022/01/15 12:30:29;;;;;;;23.43;13.37;;;-11.50;99.90;;;;;;2210421;64;20085;-37
2022/01/15 12:32:56;;;;;;;19.60;7.53;;;-11.50;99.90;;;;;;2213199;64;20104;-35
2022/01/15 12:35:25;;;;;;;27.50;14.03;;;-11.50;99.90;;;;;;2213315;64;20081;-36
2022/01/15 12:38:11;;;;;;;20.87;10.33;;;-11.50;99.90;;;;;;2213327;64;20101;-35
2022/01/15 12:40:40;;;;;;;33.10;15.83;;;-11.50;99.90;;;;;;2213283;64;20089;-37
2022/01/15 12:43:30;;;;;;;29.10;11.73;;;-11.50;99.90;;;;;;2213347;64;20116;-35
2022/01/15 12:46:02;;;;;;;28.53;14.43;;;-11.60;99.90;;;;;;2211845;64;20480;-40
2022/01/15 12:48:30;;;;;;;18.30;8.80;;;-11.50;99.90;;;;;;2210167;64;20081;-37
2022/01/15 12:51:06;;;;;;;23.73;12.10;;;-11.50;99.90;;;;;;2209878;64;20139;-36
2022/01/15 12:53:38;;;;;;;23.50;12.07;;;-11.50;99.90;;;;;;2209853;64;20104;-35
2022/01/15 12:56:14;;;;;;;24.40;11.97;;;-11.50;99.90;;;;;;2210223;64;20165;-38
2022/01/15 12:58:41;;;;;;;26.83;12.60;;;-11.50;99.90;;;;;;2209759;64;20092;-36
2022/01/15 13:01:09;;;;;;;27.67;15.57;;;-11.50;99.90;;;;;;2212860;64;20165;-35
2022/01/15 13:03:37;;;;;;;23.23;12.73;;;-11.50;99.90;;;;;;2213246;64;20239;-40
2022/01/15 13:06:07;;;;;;;19.90;8.77;;;-11.50;99.90;;;;;;2210098;64;20096;-37
2022/01/15 13:08:41;;;;;;;27.93;10.17;;;-11.50;99.90;;;;;;2201097;64;20094;-45
2022/01/15 13:13:46;;;;;;;18.47;8.07;;;-11.40;99.90;;;;;;2201244;64;20108;-36
2022/01/15 13:16:19;;;;;;;;;;;-11.40;99.90;;;;;;2201655;64;20105;-37
2022/01/15 13:18:53;;;;;;;23.97;11.07;;;-11.40;99.90;;;;;;2201342;64;20401;-35